Toyofukumaru — JD2177 — position and weather

sailwx.info

Track history (hours):
 
Tides and Currents Weather Stations Pressure Air Temp Water Temp Dewpoint Dewpoint Depression Visibility Wind Speed Wind Dir Waves Ship Positions

Toyofukumaru

Last reported at 2018-Feb-24 14:30 UTC. Time now 2018-Feb-24 14:41 UTC.
Position N 34°32' E 137°22'.

Length 165 m; draft 6.2 m.

Type: Cargo ship. MMSI: 431200688.

Date/timePositionNaut miles runAvg speedWind from/ knotsBaromVisibWave heightAir tempDewpointWater temp
2018-Feb-24 14:30N 34°32' E 137°22'1120.9
2018-Feb-24 14:00N 34°32' E 137°09'815.4
2018-Feb-24 13:30N 34°34' E 136°60'917.5
2018-Feb-24 13:00N 34°39' E 136°51'1020.2
2018-Feb-24 12:30N 34°48' E 136°46'1020.0
2018-Feb-24 12:00N 34°58' E 136°48'713.7
2018-Feb-24 11:31N 35°03' E 136°53'0 0.3
2018-Feb-24 11:00N 35°03' E 136°53'0 0.0
2018-Feb-24 10:30N 35°03' E 136°53'0 0.0
2018-Feb-24 10:00N 35°03' E 136°53'0 0.0
2018-Feb-24 09:31N 35°03' E 136°53'1 1.5
2018-Feb-24 09:01N 35°03' E 136°53'0 0.1
2018-Feb-24 08:31N 35°03' E 136°53'0 0.0
2018-Feb-24 08:00N 35°03' E 136°53'0 0.0
2018-Feb-24 07:30N 35°03' E 136°53'0 0.0
2018-Feb-24 07:00N 35°03' E 136°53'0 0.0
2018-Feb-24 06:30N 35°03' E 136°53'0 0.0
2018-Feb-24 06:00N 35°03' E 136°53'0 0.0
2018-Feb-24 05:30N 35°03' E 136°53'0 0.0
2018-Feb-24 05:00N 35°03' E 136°53'0 0.8
2018-Feb-24 04:31N 35°03' E 136°53'510.7
2018-Feb-24 04:00N 34°58' E 136°48'815.9
2018-Feb-24 03:30N 34°51' E 136°47'1019.3
2018-Feb-24 03:00N 34°42' E 136°53'917.8
2018-Feb-24 02:28N 34°41' E 137°04'1118.0
2018-Feb-24 01:50N 34°44' E 137°17'1 0.3
2018-Feb-23 21:26N 34°43' E 137°18'3 6.2
2018-Feb-23 21:00N 34°44' E 137°15'917.7
2018-Feb-23 20:29N 34°41' E 137°04'714.9
2018-Feb-23 20:00N 34°36' E 136°58'714.9
2018-Feb-23 19:30N 34°32' E 137°06'1020.0
2018-Feb-23 19:00N 34°31' E 137°19'1419.7
2018-Feb-23 18:19N 34°29' E 137°35'619.3
2018-Feb-23 17:59N 34°28' E 137°42'1 2.7
2018-Feb-23 17:28N 34°30' E 137°43'3 6.5
2018-Feb-23 16:59N 34°30' E 137°39'815.5
2018-Feb-23 16:26N 34°30' E 137°49'715.1
2018-Feb-23 15:59N 34°30' E 137°58'1017.2
2018-Feb-23 15:25N 34°29' E 138°10'1118.4
2018-Feb-23 14:48N 34°29' E 138°23'515.6
2018-Feb-23 14:30N 34°29' E 138°29'815.5
2018-Feb-23 13:59N 34°30' E 138°39'815.5
2018-Feb-23 13:30N 34°31' E 138°48'815.4
2018-Feb-23 13:01N 34°31' E 138°57'1016.6
2018-Feb-23 12:25N 34°38' E 139°06'716.9
2018-Feb-23 11:58N 34°44' E 139°11'916.5
2018-Feb-23 11:26N 34°50' E 139°19'716.3
2018-Feb-23 11:00N 34°54' E 139°26'816.8
2018-Feb-23 10:30N 34°60' E 139°33'917.0
2018-Feb-23 10:00N 35°05' E 139°41'815.6
2018-Feb-23 09:30N 35°12' E 139°46'612.1
2018-Feb-23 09:00N 35°18' E 139°44'713.2
2018-Feb-23 08:30N 35°24' E 139°40'1 1.5
2018-Feb-23 08:00N 35°23' E 139°39'0 0.0
2018-Feb-23 07:28N 35°23' E 139°39'0 0.0
2018-Feb-23 06:58N 35°23' E 139°39'0 0.0
2018-Feb-23 06:28N 35°23' E 139°39'0 0.0
2018-Feb-23 05:58N 35°23' E 139°39'0 0.0
2018-Feb-23 05:28N 35°23' E 139°39'0 0.0
2018-Feb-23 04:58N 35°23' E 139°39'0 0.0
2018-Feb-23 04:28N 35°23' E 139°39'0 0.0
2018-Feb-23 03:58N 35°23' E 139°39'0 0.0
2018-Feb-23 03:28N 35°23' E 139°39'0 0.0
2018-Feb-23 02:58N 35°23' E 139°39'0 0.1
2018-Feb-23 02:30N 35°23' E 139°39'3 6.3
2018-Feb-23 02:00N 35°22' E 139°42'612.4
2018-Feb-23 01:30N 35°16' E 139°46'612.8
2018-Feb-23 01:00N 35°10' E 139°46'1019.5
2018-Feb-23 00:30N 35°01' E 139°43'1018.9
2018-Feb-22 23:59N 34°53' E 139°49'918.1
2018-Feb-22 23:30N 34°55' E 140°00'1019.5
2018-Feb-22 22:58N 35°01' E 140°10'19 0.6
2018-Feb-21 12:53N 35°11' E 140°30'821.8
2018-Feb-21 12:30N 35°06' E 140°22'1020.9
2018-Feb-21 12:00N 35°00' E 140°11'1020.5
2018-Feb-21 11:30N 34°54' E 140°01'1019.6
2018-Feb-21 11:00N 34°52' E 139°49'918.5
2018-Feb-21 10:30N 34°60' E 139°42'1019.1
2018-Feb-21 10:00N 35°09' E 139°46'714.2
2018-Feb-21 09:30N 35°16' E 139°46'612.3
2018-Feb-21 09:01N 35°21' E 139°42'917.9
2018-Feb-21 08:31N 35°29' E 139°48'2 4.1
2018-Feb-21 08:00N 35°30' E 139°45'0 0.1
2018-Feb-21 07:28N 35°30' E 139°45'0 0.1
2018-Feb-21 06:58N 35°30' E 139°45'0 0.1
2018-Feb-21 06:28N 35°30' E 139°45'0 0.0
2018-Feb-21 05:58N 35°30' E 139°45'0 0.0
2018-Feb-21 05:28N 35°30' E 139°45'0 0.0
2018-Feb-21 04:58N 35°30' E 139°45'0 0.1
2018-Feb-21 04:28N 35°30' E 139°45'0 0.0
2018-Feb-21 03:55N 35°30' E 139°45'0 0.0
2018-Feb-21 03:28N 35°30' E 139°45'0 0.1
2018-Feb-21 02:58N 35°30' E 139°45'1 1.3
2018-Feb-21 02:30N 35°30' E 139°45'4 8.7
2018-Feb-21 02:00N 35°26' E 139°43'4 8.6
2018-Feb-21 01:30N 35°23' E 139°39'0 0.0
2018-Feb-21 01:00N 35°23' E 139°39'0 0.0
2018-Feb-21 00:29N 35°23' E 139°39'0 0.0
2018-Feb-20 23:59N 35°23' E 139°39'0 0.0
2018-Feb-20 23:29N 35°23' E 139°39'0 0.0
2018-Feb-20 22:59N 35°23' E 139°39'0 0.0
2018-Feb-20 22:27N 35°23' E 139°39'1 2.2
2018-Feb-20 22:00N 35°23' E 139°40'612.4
2018-Feb-20 21:31N 35°18' E 139°44'612.2
2018-Feb-20 21:00N 35°13' E 139°47'816.8
2018-Feb-20 20:30N 35°05' E 139°42'1019.5
2018-Feb-20 20:00N 34°58' E 139°33'1019.1
2018-Feb-20 19:29N 34°52' E 139°24'919.9
2018-Feb-20 19:01N 34°45' E 139°16'1019.5
2018-Feb-20 18:30N 34°39' E 139°07'1120.5
2018-Feb-20 17:59N 34°32' E 138°57'1020.0
2018-Feb-20 17:31N 34°30' E 138°46'1120.9
2018-Feb-20 17:00N 34°30' E 138°33'1221.1
2018-Feb-20 16:27N 34°30' E 138°19'1021.6
2018-Feb-20 16:00N 34°30' E 138°07'1121.2
2018-Feb-20 15:29N 34°31' E 137°54'2121.0
2018-Feb-20 14:30N 34°31' E 137°28'1021.1
2018-Feb-20 14:00N 34°32' E 137°16'1019.9
2018-Feb-20 13:30N 34°32' E 137°04'714.4
2018-Feb-20 13:00N 34°36' E 136°56'1020.4
2018-Feb-20 12:30N 34°43' E 136°48'1020.6
2018-Feb-20 12:00N 34°53' E 136°46'918.5
2018-Feb-20 11:30N 35°01' E 136°51'2 4.9
2018-Feb-20 11:01N 35°03' E 136°53'0 0.0
2018-Feb-20 10:30N 35°03' E 136°53'0 0.0
2018-Feb-20 09:58N 35°03' E 136°53'0 0.0
2018-Feb-20 09:28N 35°03' E 136°53'0 0.0
2018-Feb-20 08:58N 35°03' E 136°53'1 1.5
2018-Feb-20 08:30N 35°03' E 136°53'0 0.4
2018-Feb-20 08:00N 35°03' E 136°53'0 0.0
2018-Feb-20 07:29N 35°03' E 136°53'0 0.0
2018-Feb-20 06:56N 35°03' E 136°53'0 0.0
2018-Feb-20 06:26N 35°03' E 136°53'0 0.0
2018-Feb-20 05:56N 35°03' E 136°53'0 0.0
2018-Feb-20 05:26N 35°03' E 136°53'0 0.0
2018-Feb-20 04:56N 35°03' E 136°53'0 0.0
2018-Feb-20 04:29N 35°03' E 136°53'1 1.7
2018-Feb-20 04:00N 35°03' E 136°52'714.0
2018-Feb-20 03:31N 34°57' E 136°47'1019.3
2018-Feb-20 03:01N 34°47' E 136°47'1119.3
2018-Feb-20 02:28N 34°40' E 136°57'817.7
2018-Feb-20 02:01N 34°41' E 137°06'10 2.2
2018-Feb-19 21:31N 34°43' E 137°18'0 0.2
2018-Feb-19 21:30N 34°43' E 137°18'2 3.4
2018-Feb-19 21:00N 34°44' E 137°16'816.8
2018-Feb-19 20:30N 34°41' E 137°07'816.0
2018-Feb-19 19:59N 34°36' E 136°58'711.6
2018-Feb-19 19:23N 34°32' E 137°05'718.9
2018-Feb-19 19:00N 34°32' E 137°14'1918.7
2018-Feb-19 18:01N 34°31' E 137°36'1018.5
2018-Feb-19 17:28N 34°30' E 137°48'918.6
2018-Feb-19 17:00N 34°30' E 137°59'1218.4
2018-Feb-19 16:21N 34°29' E 138°13'717.7
2018-Feb-19 15:57N 34°29' E 138°22'817.3
2018-Feb-19 15:30N 34°29' E 138°31'917.0
2018-Feb-19 14:59N 34°30' E 138°42'816.8
2018-Feb-19 14:30N 34°31' E 138°52'916.2
2018-Feb-19 13:56N 34°35' E 139°02'817.1
2018-Feb-19 13:30N 34°40' E 139°08'1017.1
2018-Feb-19 12:54N 34°48' E 139°17'817.7
2018-Feb-19 12:29N 34°53' E 139°23'918.2
2018-Feb-19 12:01N 34°58' E 139°31'918.0
2018-Feb-19 11:31N 35°04' E 139°40'917.4
2018-Feb-19 11:00N 35°11' E 139°45'612.1
2018-Feb-19 10:30N 35°17' E 139°45'612.9
2018-Feb-19 10:01N 35°23' E 139°41'1 2.7
2018-Feb-19 09:30N 35°23' E 139°39'0 0.0
2018-Feb-19 08:58N 35°23' E 139°39'0 0.0
2018-Feb-19 08:25N 35°23' E 139°39'0 0.0
2018-Feb-19 07:58N 35°23' E 139°39'0 0.0
2018-Feb-19 07:28N 35°23' E 139°39'0 0.0
2018-Feb-19 06:58N 35°23' E 139°39'0 0.0
2018-Feb-19 06:28N 35°23' E 139°39'0 0.0
2018-Feb-19 05:58N 35°23' E 139°39'0 0.0
2018-Feb-19 05:28N 35°23' E 139°39'0 0.0
2018-Feb-19 04:58N 35°23' E 139°39'0 0.0
2018-Feb-19 04:31N 35°23' E 139°39'1 2.8
2018-Feb-19 04:00N 35°23' E 139°41'713.3
2018-Feb-19 03:30N 35°17' E 139°45'612.1
2018-Feb-19 03:00N 35°12' E 139°47'1019.7
2018-Feb-19 02:30N 35°02' E 139°44'917.4
2018-Feb-19 02:00N 34°54' E 139°48'1118.8
2018-Feb-19 01:26N 34°55' E 140°01'22 0.6
2018-Feb-17 14:08N 35°07' E 140°24'419.6
2018-Feb-17 13:57N 35°05' E 140°20'919.2
2018-Feb-17 13:28N 35°00' E 140°11'918.8
2018-Feb-17 12:59N 34°56' E 140°01'918.2
2018-Feb-17 12:29N 34°51' E 139°51'1018.1
2018-Feb-17 11:57N 34°57' E 139°42'920.6
2018-Feb-17 11:31N 35°06' E 139°45'815.7
2018-Feb-17 11:01N 35°14' E 139°46'612.4
2018-Feb-17 10:31N 35°20' E 139°43'816.8
2018-Feb-17 10:01N 35°28' E 139°46'3 5.4
2018-Feb-17 09:30N 35°30' E 139°45'0 0.0
2018-Feb-17 08:58N 35°30' E 139°45'0 0.1
2018-Feb-17 08:28N 35°30' E 139°45'0 0.1
2018-Feb-17 07:58N 35°30' E 139°45'0 0.0
2018-Feb-17 07:28N 35°30' E 139°45'0 0.0
2018-Feb-17 06:58N 35°30' E 139°45'0 0.0
2018-Feb-17 06:28N 35°30' E 139°45'0 0.1
2018-Feb-17 05:58N 35°30' E 139°45'0 0.0
2018-Feb-17 05:28N 35°30' E 139°45'0 0.1
2018-Feb-17 04:58N 35°30' E 139°45'0 0.1
2018-Feb-17 04:28N 35°30' E 139°45'0 0.1
2018-Feb-17 03:58N 35°30' E 139°45'0 0.0
2018-Feb-17 03:28N 35°30' E 139°45'1 1.3
2018-Feb-17 03:00N 35°30' E 139°45'4 7.6
2018-Feb-17 02:30N 35°26' E 139°43'4 9.0
2018-Feb-17 02:00N 35°23' E 139°39'0 0.4
2018-Feb-17 01:30N 35°23' E 139°39'0 0.0
2018-Feb-17 01:00N 35°23' E 139°39'0 0.0
2018-Feb-17 00:30N 35°23' E 139°39'0 0.0
2018-Feb-17 00:00N 35°23' E 139°39'0 0.0
2018-Feb-16 23:30N 35°23' E 139°39'0 0.0
2018-Feb-16 23:01N 35°23' E 139°39'1 2.7
2018-Feb-16 22:31N 35°23' E 139°40'612.5
2018-Feb-16 22:00N 35°18' E 139°45'612.0
2018-Feb-16 21:30N 35°12' E 139°47'918.0
2018-Feb-16 21:00N 35°04' E 139°41'1121.4
2018-Feb-16 20:30N 34°57' E 139°31'1122.0
2018-Feb-16 19:59N 34°50' E 139°20'1321.3
2018-Feb-16 19:24N 34°41' E 139°09'820.8
2018-Feb-16 19:00N 34°36' E 139°02'1019.9
2018-Feb-16 18:30N 34°32' E 138°51'1121.8
2018-Feb-16 18:00N 34°31' E 138°38'1121.8
2018-Feb-16 17:30N 34°31' E 138°24'1222.0
2018-Feb-16 16:58N 34°31' E 138°10'1221.3
2018-Feb-16 16:25N 34°31' E 137°56'820.6
2018-Feb-16 16:00N 34°32' E 137°46'1619.9
2018-Feb-16 15:11N 34°32' E 137°26'420.4
2018-Feb-16 15:01N 34°32' E 137°22'1020.5
2018-Feb-16 14:31N 34°32' E 137°09'815.5
2018-Feb-16 13:59N 34°34' E 136°60'919.3
2018-Feb-16 13:30N 34°40' E 136°51'1020.4
2018-Feb-16 13:00N 34°49' E 136°45'1020.3
2018-Feb-16 12:30N 34°59' E 136°48'611.6
2018-Feb-16 12:01N 35°03' E 136°53'0 0.0
2018-Feb-16 11:31N 35°03' E 136°53'0 0.0
2018-Feb-16 10:56N 35°03' E 136°53'0 0.0
2018-Feb-16 10:26N 35°03' E 136°53'0 0.0
2018-Feb-16 09:56N 35°03' E 136°53'0 0.0
2018-Feb-16 09:26N 35°03' E 136°53'1 1.4
2018-Feb-16 09:00N 35°03' E 136°53'0 0.6
2018-Feb-16 08:30N 35°03' E 136°53'0 0.0
2018-Feb-16 08:00N 35°03' E 136°53'0 0.0
2018-Feb-16 07:26N 35°03' E 136°53'0 0.0
2018-Feb-16 06:56N 35°03' E 136°53'0 0.0
2018-Feb-16 06:26N 35°03' E 136°53'0 0.0
2018-Feb-16 05:56N 35°03' E 136°53'0 0.0
2018-Feb-16 05:26N 35°03' E 136°53'0 0.0
2018-Feb-16 04:49N 35°03' E 136°53'1 2.1
2018-Feb-16 04:30N 35°03' E 136°52'713.2
2018-Feb-16 04:00N 34°57' E 136°47'1020.1
2018-Feb-16 03:30N 34°47' E 136°48'1019.1
2018-Feb-16 02:59N 34°40' E 136°56'817.5
2018-Feb-16 02:30N 34°41' E 137°06'10 2.1
2018-Feb-15 21:55N 34°43' E 137°18'0 0.0
2018-Feb-15 21:30N 34°43' E 137°18'1 2.4
2018-Feb-15 21:00N 34°44' E 137°17'612.5
2018-Feb-15 20:31N 34°42' E 137°10'918.0
2018-Feb-15 19:59N 34°38' E 136°60'611.6
2018-Feb-15 19:28N 34°33' E 137°02'713.3
2018-Feb-15 18:57N 34°31' E 137°10'817.6
2018-Feb-15 18:29N 34°30' E 137°20'1117.5
2018-Feb-15 17:52N 34°29' E 137°33'818.5
2018-Feb-15 17:27N 34°29' E 137°43'919.2
2018-Feb-15 17:00N 34°29' E 137°53'1018.9
2018-Feb-15 16:28N 34°29' E 138°05'1118.1
2018-Feb-15 15:52N 34°29' E 138°19'818.4
2018-Feb-15 15:27N 34°29' E 138°28'818.0
2018-Feb-15 15:00N 34°29' E 138°38'714.7
2018-Feb-15 14:30N 34°30' E 138°46'714.1
2018-Feb-15 14:00N 34°30' E 138°55'713.6
2018-Feb-15 13:31N 34°34' E 139°02'814.7
2018-Feb-15 12:58N 34°40' E 139°07'816.3
2018-Feb-15 12:31N 34°47' E 139°12'815.3
2018-Feb-15 12:01N 34°51' E 139°20'815.1
2018-Feb-15 11:30N 34°56' E 139°27'816.0
2018-Feb-15 11:01N 35°01' E 139°35'917.7
2018-Feb-15 10:31N 35°06' E 139°43'815.7
2018-Feb-15 10:01N 35°14' E 139°46'612.7
2018-Feb-15 09:30N 35°20' E 139°43'5 9.9
2018-Feb-15 09:00N 35°23' E 139°39'0 0.0
2018-Feb-15 08:30N 35°23' E 139°39'0 0.0
2018-Feb-15 07:58N 35°23' E 139°39'0 0.0
2018-Feb-15 07:28N 35°23' E 139°39'0 0.0
2018-Feb-15 06:58N 35°23' E 139°39'0 0.0
2018-Feb-15 06:25N 35°23' E 139°39'0 0.0
2018-Feb-15 05:58N 35°23' E 139°39'0 0.0
2018-Feb-15 05:28N 35°23' E 139°39'0 0.0
2018-Feb-15 04:58N 35°23' E 139°39'0 0.0
2018-Feb-15 04:28N 35°23' E 139°39'0 0.0
2018-Feb-15 03:58N 35°23' E 139°39'0 0.0
2018-Feb-15 03:28N 35°23' E 139°39'0 0.5
2018-Feb-15 03:00N 35°24' E 139°39'510.6
2018-Feb-15 02:30N 35°19' E 139°43'612.2
2018-Feb-15 02:00N 35°14' E 139°47'816.0
2018-Feb-15 01:31N 35°06' E 139°46'918.5
2018-Feb-15 01:00N 34°57' E 139°44'815.2
2018-Feb-15 00:28N 34°53' E 139°53'917.1
2018-Feb-14 23:58N 34°57' E 140°03'817.9
2018-Feb-14 23:30N 35°01' E 140°11'  
Track history (hours):
 
Tides and Currents Weather Stations Pressure Air Temp Water Temp Dewpoint Dewpoint Depression Visibility Wind Speed Wind Dir Waves Ship Positions

Toyofukumaru

Last reported at 2018-Feb-24 14:30 UTC. Time now 2018-Feb-24 14:41 UTC.
Position N 34°32' E 137°22'.

Length 165 m; draft 6.2 m.

Type: Cargo ship. MMSI: 431200688.

Date/timePositionNaut miles runAvg speedWind from/ knotsBaromVisibWave heightAir tempDewpointWater temp
2018-Feb-24 14:30N 34°32' E 137°22'1120.9
2018-Feb-24 14:00N 34°32' E 137°09'815.4
2018-Feb-24 13:30N 34°34' E 136°60'917.5
2018-Feb-24 13:00N 34°39' E 136°51'1020.2
2018-Feb-24 12:30N 34°48' E 136°46'1020.0
2018-Feb-24 12:00N 34°58' E 136°48'713.7
2018-Feb-24 11:31N 35°03' E 136°53'0 0.3
2018-Feb-24 11:00N 35°03' E 136°53'0 0.0
2018-Feb-24 10:30N 35°03' E 136°53'0 0.0
2018-Feb-24 10:00N 35°03' E 136°53'0 0.0
2018-Feb-24 09:31N 35°03' E 136°53'1 1.5
2018-Feb-24 09:01N 35°03' E 136°53'0 0.1
2018-Feb-24 08:31N 35°03' E 136°53'0 0.0
2018-Feb-24 08:00N 35°03' E 136°53'0 0.0
2018-Feb-24 07:30N 35°03' E 136°53'0 0.0
2018-Feb-24 07:00N 35°03' E 136°53'0 0.0
2018-Feb-24 06:30N 35°03' E 136°53'0 0.0
2018-Feb-24 06:00N 35°03' E 136°53'0 0.0
2018-Feb-24 05:30N 35°03' E 136°53'0 0.0
2018-Feb-24 05:00N 35°03' E 136°53'0 0.8
2018-Feb-24 04:31N 35°03' E 136°53'510.7
2018-Feb-24 04:00N 34°58' E 136°48'815.9
2018-Feb-24 03:30N 34°51' E 136°47'1019.3
2018-Feb-24 03:00N 34°42' E 136°53'917.8
2018-Feb-24 02:28N 34°41' E 137°04'1118.0
2018-Feb-24 01:50N 34°44' E 137°17'1 0.3
2018-Feb-23 21:26N 34°43' E 137°18'3 6.2
2018-Feb-23 21:00N 34°44' E 137°15'917.7
2018-Feb-23 20:29N 34°41' E 137°04'714.9
2018-Feb-23 20:00N 34°36' E 136°58'714.9
2018-Feb-23 19:30N 34°32' E 137°06'1020.0
2018-Feb-23 19:00N 34°31' E 137°19'1419.7
2018-Feb-23 18:19N 34°29' E 137°35'619.3
2018-Feb-23 17:59N 34°28' E 137°42'1 2.7
2018-Feb-23 17:28N 34°30' E 137°43'3 6.5
2018-Feb-23 16:59N 34°30' E 137°39'815.5
2018-Feb-23 16:26N 34°30' E 137°49'715.1
2018-Feb-23 15:59N 34°30' E 137°58'1017.2
2018-Feb-23 15:25N 34°29' E 138°10'1118.4
2018-Feb-23 14:48N 34°29' E 138°23'515.6
2018-Feb-23 14:30N 34°29' E 138°29'815.5
2018-Feb-23 13:59N 34°30' E 138°39'815.5
2018-Feb-23 13:30N 34°31' E 138°48'815.4
2018-Feb-23 13:01N 34°31' E 138°57'1016.6
2018-Feb-23 12:25N 34°38' E 139°06'716.9
2018-Feb-23 11:58N 34°44' E 139°11'916.5
2018-Feb-23 11:26N 34°50' E 139°19'716.3
2018-Feb-23 11:00N 34°54' E 139°26'816.8
2018-Feb-23 10:30N 34°60' E 139°33'917.0
2018-Feb-23 10:00N 35°05' E 139°41'815.6
2018-Feb-23 09:30N 35°12' E 139°46'612.1
2018-Feb-23 09:00N 35°18' E 139°44'713.2
2018-Feb-23 08:30N 35°24' E 139°40'1 1.5
2018-Feb-23 08:00N 35°23' E 139°39'0 0.0
2018-Feb-23 07:28N 35°23' E 139°39'0 0.0
2018-Feb-23 06:58N 35°23' E 139°39'0 0.0
2018-Feb-23 06:28N 35°23' E 139°39'0 0.0
2018-Feb-23 05:58N 35°23' E 139°39'0 0.0
2018-Feb-23 05:28N 35°23' E 139°39'0 0.0
2018-Feb-23 04:58N 35°23' E 139°39'0 0.0
2018-Feb-23 04:28N 35°23' E 139°39'0 0.0
2018-Feb-23 03:58N 35°23' E 139°39'0 0.0
2018-Feb-23 03:28N 35°23' E 139°39'0 0.0
2018-Feb-23 02:58N 35°23' E 139°39'0 0.1
2018-Feb-23 02:30N 35°23' E 139°39'3 6.3
2018-Feb-23 02:00N 35°22' E 139°42'612.4
2018-Feb-23 01:30N 35°16' E 139°46'612.8
2018-Feb-23 01:00N 35°10' E 139°46'1019.5
2018-Feb-23 00:30N 35°01' E 139°43'1018.9
2018-Feb-22 23:59N 34°53' E 139°49'918.1
2018-Feb-22 23:30N 34°55' E 140°00'1019.5
2018-Feb-22 22:58N 35°01' E 140°10'19 0.6
2018-Feb-21 12:53N 35°11' E 140°30'821.8
2018-Feb-21 12:30N 35°06' E 140°22'1020.9
2018-Feb-21 12:00N 35°00' E 140°11'1020.5
2018-Feb-21 11:30N 34°54' E 140°01'1019.6
2018-Feb-21 11:00N 34°52' E 139°49'918.5
2018-Feb-21 10:30N 34°60' E 139°42'1019.1
2018-Feb-21 10:00N 35°09' E 139°46'714.2
2018-Feb-21 09:30N 35°16' E 139°46'612.3
2018-Feb-21 09:01N 35°21' E 139°42'917.9
2018-Feb-21 08:31N 35°29' E 139°48'2 4.1
2018-Feb-21 08:00N 35°30' E 139°45'0 0.1
2018-Feb-21 07:28N 35°30' E 139°45'0 0.1
2018-Feb-21 06:58N 35°30' E 139°45'0 0.1
2018-Feb-21 06:28N 35°30' E 139°45'0 0.0
2018-Feb-21 05:58N 35°30' E 139°45'0 0.0
2018-Feb-21 05:28N 35°30' E 139°45'0 0.0
2018-Feb-21 04:58N 35°30' E 139°45'0 0.1
2018-Feb-21 04:28N 35°30' E 139°45'0 0.0
2018-Feb-21 03:55N 35°30' E 139°45'0 0.0
2018-Feb-21 03:28N 35°30' E 139°45'0 0.1
2018-Feb-21 02:58N 35°30' E 139°45'1 1.3
2018-Feb-21 02:30N 35°30' E 139°45'4 8.7
2018-Feb-21 02:00N 35°26' E 139°43'4 8.6
2018-Feb-21 01:30N 35°23' E 139°39'0 0.0
2018-Feb-21 01:00N 35°23' E 139°39'0 0.0
2018-Feb-21 00:29N 35°23' E 139°39'0 0.0
2018-Feb-20 23:59N 35°23' E 139°39'0 0.0
2018-Feb-20 23:29N 35°23' E 139°39'0 0.0
2018-Feb-20 22:59N 35°23' E 139°39'0 0.0
2018-Feb-20 22:27N 35°23' E 139°39'1 2.2
2018-Feb-20 22:00N 35°23' E 139°40'612.4
2018-Feb-20 21:31N 35°18' E 139°44'612.2
2018-Feb-20 21:00N 35°13' E 139°47'816.8
2018-Feb-20 20:30N 35°05' E 139°42'1019.5
2018-Feb-20 20:00N 34°58' E 139°33'1019.1
2018-Feb-20 19:29N 34°52' E 139°24'919.9
2018-Feb-20 19:01N 34°45' E 139°16'1019.5
2018-Feb-20 18:30N 34°39' E 139°07'1120.5
2018-Feb-20 17:59N 34°32' E 138°57'1020.0
2018-Feb-20 17:31N 34°30' E 138°46'1120.9
2018-Feb-20 17:00N 34°30' E 138°33'1221.1
2018-Feb-20 16:27N 34°30' E 138°19'1021.6
2018-Feb-20 16:00N 34°30' E 138°07'1121.2
2018-Feb-20 15:29N 34°31' E 137°54'2121.0
2018-Feb-20 14:30N 34°31' E 137°28'1021.1
2018-Feb-20 14:00N 34°32' E 137°16'1019.9
2018-Feb-20 13:30N 34°32' E 137°04'714.4
2018-Feb-20 13:00N 34°36' E 136°56'1020.4
2018-Feb-20 12:30N 34°43' E 136°48'1020.6
2018-Feb-20 12:00N 34°53' E 136°46'918.5
2018-Feb-20 11:30N 35°01' E 136°51'2 4.9
2018-Feb-20 11:01N 35°03' E 136°53'0 0.0
2018-Feb-20 10:30N 35°03' E 136°53'0 0.0
2018-Feb-20 09:58N 35°03' E 136°53'0 0.0
2018-Feb-20 09:28N 35°03' E 136°53'0 0.0
2018-Feb-20 08:58N 35°03' E 136°53'1 1.5
2018-Feb-20 08:30N 35°03' E 136°53'0 0.4
2018-Feb-20 08:00N 35°03' E 136°53'0 0.0
2018-Feb-20 07:29N 35°03' E 136°53'0 0.0
2018-Feb-20 06:56N 35°03' E 136°53'0 0.0
2018-Feb-20 06:26N 35°03' E 136°53'0 0.0
2018-Feb-20 05:56N 35°03' E 136°53'0 0.0
2018-Feb-20 05:26N 35°03' E 136°53'0 0.0
2018-Feb-20 04:56N 35°03' E 136°53'0 0.0
2018-Feb-20 04:29N 35°03' E 136°53'1 1.7
2018-Feb-20 04:00N 35°03' E 136°52'714.0
2018-Feb-20 03:31N 34°57' E 136°47'1019.3
2018-Feb-20 03:01N 34°47' E 136°47'1119.3
2018-Feb-20 02:28N 34°40' E 136°57'817.7
2018-Feb-20 02:01N 34°41' E 137°06'10 2.2
2018-Feb-19 21:31N 34°43' E 137°18'0 0.2
2018-Feb-19 21:30N 34°43' E 137°18'2 3.4
2018-Feb-19 21:00N 34°44' E 137°16'816.8
2018-Feb-19 20:30N 34°41' E 137°07'816.0
2018-Feb-19 19:59N 34°36' E 136°58'711.6
2018-Feb-19 19:23N 34°32' E 137°05'718.9
2018-Feb-19 19:00N 34°32' E 137°14'1918.7
2018-Feb-19 18:01N 34°31' E 137°36'1018.5
2018-Feb-19 17:28N 34°30' E 137°48'918.6
2018-Feb-19 17:00N 34°30' E 137°59'1218.4
2018-Feb-19 16:21N 34°29' E 138°13'717.7
2018-Feb-19 15:57N 34°29' E 138°22'817.3
2018-Feb-19 15:30N 34°29' E 138°31'917.0
2018-Feb-19 14:59N 34°30' E 138°42'816.8
2018-Feb-19 14:30N 34°31' E 138°52'916.2
2018-Feb-19 13:56N 34°35' E 139°02'817.1
2018-Feb-19 13:30N 34°40' E 139°08'1017.1
2018-Feb-19 12:54N 34°48' E 139°17'817.7
2018-Feb-19 12:29N 34°53' E 139°23'918.2
2018-Feb-19 12:01N 34°58' E 139°31'918.0
2018-Feb-19 11:31N 35°04' E 139°40'917.4
2018-Feb-19 11:00N 35°11' E 139°45'612.1
2018-Feb-19 10:30N 35°17' E 139°45'612.9
2018-Feb-19 10:01N 35°23' E 139°41'1 2.7
2018-Feb-19 09:30N 35°23' E 139°39'0 0.0
2018-Feb-19 08:58N 35°23' E 139°39'0 0.0
2018-Feb-19 08:25N 35°23' E 139°39'0 0.0
2018-Feb-19 07:58N 35°23' E 139°39'0 0.0
2018-Feb-19 07:28N 35°23' E 139°39'0 0.0
2018-Feb-19 06:58N 35°23' E 139°39'0 0.0
2018-Feb-19 06:28N 35°23' E 139°39'0 0.0
2018-Feb-19 05:58N 35°23' E 139°39'0 0.0
2018-Feb-19 05:28N 35°23' E 139°39'0 0.0
2018-Feb-19 04:58N 35°23' E 139°39'0 0.0
2018-Feb-19 04:31N 35°23' E 139°39'1 2.8
2018-Feb-19 04:00N 35°23' E 139°41'713.3
2018-Feb-19 03:30N 35°17' E 139°45'612.1
2018-Feb-19 03:00N 35°12' E 139°47'1019.7
2018-Feb-19 02:30N 35°02' E 139°44'917.4
2018-Feb-19 02:00N 34°54' E 139°48'1118.8
2018-Feb-19 01:26N 34°55' E 140°01'22 0.6
2018-Feb-17 14:08N 35°07' E 140°24'419.6
2018-Feb-17 13:57N 35°05' E 140°20'919.2
2018-Feb-17 13:28N 35°00' E 140°11'918.8
2018-Feb-17 12:59N 34°56' E 140°01'918.2
2018-Feb-17 12:29N 34°51' E 139°51'1018.1
2018-Feb-17 11:57N 34°57' E 139°42'920.6
2018-Feb-17 11:31N 35°06' E 139°45'815.7
2018-Feb-17 11:01N 35°14' E 139°46'612.4
2018-Feb-17 10:31N 35°20' E 139°43'816.8
2018-Feb-17 10:01N 35°28' E 139°46'3 5.4
2018-Feb-17 09:30N 35°30' E 139°45'0 0.0
2018-Feb-17 08:58N 35°30' E 139°45'0 0.1
2018-Feb-17 08:28N 35°30' E 139°45'0 0.1
2018-Feb-17 07:58N 35°30' E 139°45'0 0.0
2018-Feb-17 07:28N 35°30' E 139°45'0 0.0
2018-Feb-17 06:58N 35°30' E 139°45'0 0.0
2018-Feb-17 06:28N 35°30' E 139°45'0 0.1
2018-Feb-17 05:58N 35°30' E 139°45'0 0.0
2018-Feb-17 05:28N 35°30' E 139°45'0 0.1
2018-Feb-17 04:58N 35°30' E 139°45'0 0.1
2018-Feb-17 04:28N 35°30' E 139°45'0 0.1
2018-Feb-17 03:58N 35°30' E 139°45'0 0.0
2018-Feb-17 03:28N 35°30' E 139°45'1 1.3
2018-Feb-17 03:00N 35°30' E 139°45'4 7.6
2018-Feb-17 02:30N 35°26' E 139°43'4 9.0
2018-Feb-17 02:00N 35°23' E 139°39'0 0.4
2018-Feb-17 01:30N 35°23' E 139°39'0 0.0
2018-Feb-17 01:00N 35°23' E 139°39'0 0.0
2018-Feb-17 00:30N 35°23' E 139°39'0 0.0
2018-Feb-17 00:00N 35°23' E 139°39'0 0.0
2018-Feb-16 23:30N 35°23' E 139°39'0 0.0
2018-Feb-16 23:01N 35°23' E 139°39'1 2.7
2018-Feb-16 22:31N 35°23' E 139°40'612.5
2018-Feb-16 22:00N 35°18' E 139°45'612.0
2018-Feb-16 21:30N 35°12' E 139°47'918.0
2018-Feb-16 21:00N 35°04' E 139°41'1121.4
2018-Feb-16 20:30N 34°57' E 139°31'1122.0
2018-Feb-16 19:59N 34°50' E 139°20'1321.3
2018-Feb-16 19:24N 34°41' E 139°09'820.8
2018-Feb-16 19:00N 34°36' E 139°02'1019.9
2018-Feb-16 18:30N 34°32' E 138°51'1121.8
2018-Feb-16 18:00N 34°31' E 138°38'1121.8
2018-Feb-16 17:30N 34°31' E 138°24'1222.0
2018-Feb-16 16:58N 34°31' E 138°10'1221.3
2018-Feb-16 16:25N 34°31' E 137°56'820.6
2018-Feb-16 16:00N 34°32' E 137°46'1619.9
2018-Feb-16 15:11N 34°32' E 137°26'420.4
2018-Feb-16 15:01N 34°32' E 137°22'1020.5
2018-Feb-16 14:31N 34°32' E 137°09'815.5
2018-Feb-16 13:59N 34°34' E 136°60'919.3
2018-Feb-16 13:30N 34°40' E 136°51'1020.4
2018-Feb-16 13:00N 34°49' E 136°45'1020.3
2018-Feb-16 12:30N 34°59' E 136°48'611.6
2018-Feb-16 12:01N 35°03' E 136°53'0 0.0
2018-Feb-16 11:31N 35°03' E 136°53'0 0.0
2018-Feb-16 10:56N 35°03' E 136°53'0 0.0
2018-Feb-16 10:26N 35°03' E 136°53'0 0.0
2018-Feb-16 09:56N 35°03' E 136°53'0 0.0
2018-Feb-16 09:26N 35°03' E 136°53'1 1.4
2018-Feb-16 09:00N 35°03' E 136°53'0 0.6
2018-Feb-16 08:30N 35°03' E 136°53'0 0.0
2018-Feb-16 08:00N 35°03' E 136°53'0 0.0
2018-Feb-16 07:26N 35°03' E 136°53'0 0.0
2018-Feb-16 06:56N 35°03' E 136°53'0 0.0
2018-Feb-16 06:26N 35°03' E 136°53'0 0.0
2018-Feb-16 05:56N 35°03' E 136°53'0 0.0
2018-Feb-16 05:26N 35°03' E 136°53'0 0.0
2018-Feb-16 04:49N 35°03' E 136°53'1 2.1
2018-Feb-16 04:30N 35°03' E 136°52'713.2
2018-Feb-16 04:00N 34°57' E 136°47'1020.1
2018-Feb-16 03:30N 34°47' E 136°48'1019.1
2018-Feb-16 02:59N 34°40' E 136°56'817.5
2018-Feb-16 02:30N 34°41' E 137°06'10 2.1
2018-Feb-15 21:55N 34°43' E 137°18'0 0.0
2018-Feb-15 21:30N 34°43' E 137°18'1 2.4
2018-Feb-15 21:00N 34°44' E 137°17'612.5
2018-Feb-15 20:31N 34°42' E 137°10'918.0
2018-Feb-15 19:59N 34°38' E 136°60'611.6
2018-Feb-15 19:28N 34°33' E 137°02'713.3
2018-Feb-15 18:57N 34°31' E 137°10'817.6
2018-Feb-15 18:29N 34°30' E 137°20'1117.5
2018-Feb-15 17:52N 34°29' E 137°33'818.5
2018-Feb-15 17:27N 34°29' E 137°43'919.2
2018-Feb-15 17:00N 34°29' E 137°53'1018.9
2018-Feb-15 16:28N 34°29' E 138°05'1118.1
2018-Feb-15 15:52N 34°29' E 138°19'818.4
2018-Feb-15 15:27N 34°29' E 138°28'818.0
2018-Feb-15 15:00N 34°29' E 138°38'714.7
2018-Feb-15 14:30N 34°30' E 138°46'714.1
2018-Feb-15 14:00N 34°30' E 138°55'713.6
2018-Feb-15 13:31N 34°34' E 139°02'814.7
2018-Feb-15 12:58N 34°40' E 139°07'816.3
2018-Feb-15 12:31N 34°47' E 139°12'815.3
2018-Feb-15 12:01N 34°51' E 139°20'815.1
2018-Feb-15 11:30N 34°56' E 139°27'816.0
2018-Feb-15 11:01N 35°01' E 139°35'917.7
2018-Feb-15 10:31N 35°06' E 139°43'815.7
2018-Feb-15 10:01N 35°14' E 139°46'612.7
2018-Feb-15 09:30N 35°20' E 139°43'5 9.9
2018-Feb-15 09:00N 35°23' E 139°39'0 0.0
2018-Feb-15 08:30N 35°23' E 139°39'0 0.0
2018-Feb-15 07:58N 35°23' E 139°39'0 0.0
2018-Feb-15 07:28N 35°23' E 139°39'0 0.0
2018-Feb-15 06:58N 35°23' E 139°39'0 0.0
2018-Feb-15 06:25N 35°23' E 139°39'0 0.0
2018-Feb-15 05:58N 35°23' E 139°39'0 0.0
2018-Feb-15 05:28N 35°23' E 139°39'0 0.0
2018-Feb-15 04:58N 35°23' E 139°39'0 0.0
2018-Feb-15 04:28N 35°23' E 139°39'0 0.0
2018-Feb-15 03:58N 35°23' E 139°39'0 0.0
2018-Feb-15 03:28N 35°23' E 139°39'0 0.5
2018-Feb-15 03:00N 35°24' E 139°39'510.6
2018-Feb-15 02:30N 35°19' E 139°43'612.2
2018-Feb-15 02:00N 35°14' E 139°47'816.0
2018-Feb-15 01:31N 35°06' E 139°46'918.5
2018-Feb-15 01:00N 34°57' E 139°44'815.2
2018-Feb-15 00:28N 34°53' E 139°53'917.1
2018-Feb-14 23:58N 34°57' E 140°03'817.9
2018-Feb-14 23:30N 35°01' E 140°11'  

Dump ship's entire track history